sensor_id;sensor_type;location;lat;lon;timestamp;pressure;altitude;pressure_sealevel;temperature;humidity
70200;BME280;57587;55.688;37.600;2023-03-22T00:00:08;98913.06;;;7.43;64.04
70200;BME280;57587;55.688;37.600;2023-03-22T00:02:43;98913.53;;;7.46;63.83
70200;BME280;57587;55.688;37.600;2023-03-22T00:05:10;98915.38;;;7.46;64.19
70200;BME280;57587;55.688;37.600;2023-03-22T00:07:37;98915.66;;;7.51;63.92
70200;BME280;57587;55.688;37.600;2023-03-22T00:10:07;98918.28;;;7.36;64.64
70200;BME280;57587;55.688;37.600;2023-03-22T00:12:34;98920.44;;;7.41;64.43
70200;BME280;57587;55.688;37.600;2023-03-22T00:15:01;98927.75;;;7.38;64.63
70200;BME280;57587;55.688;37.600;2023-03-22T00:17:28;98916.28;;;7.38;64.95
70200;BME280;57587;55.688;37.600;2023-03-22T00:19:56;98915.09;;;7.41;64.53
70200;BME280;57587;55.688;37.600;2023-03-22T00:22:24;98919.31;;;7.35;64.47
70200;BME280;57587;55.688;37.600;2023-03-22T00:24:51;98917.81;;;7.32;64.74
70200;BME280;57587;55.688;37.600;2023-03-22T00:27:18;98922.44;;;7.38;64.77
70200;BME280;57587;55.688;37.600;2023-03-22T00:29:46;98924.06;;;7.39;64.54
70200;BME280;57587;55.688;37.600;2023-03-22T00:32:14;98920.06;;;7.44;64.50
70200;BME280;57587;55.688;37.600;2023-03-22T00:34:41;98925.03;;;7.47;64.44
70200;BME280;57587;55.688;37.600;2023-03-22T00:37:09;98924.31;;;7.53;64.03
70200;BME280;57587;55.688;37.600;2023-03-22T00:39:36;98937.53;;;7.61;63.75
70200;BME280;57587;55.688;37.600;2023-03-22T00:42:05;98939.56;;;7.59;63.89
70200;BME280;57587;55.688;37.600;2023-03-22T00:44:32;98935.53;;;7.63;63.63
70200;BME280;57587;55.688;37.600;2023-03-22T00:46:59;98943.97;;;7.67;63.49
70200;BME280;57587;55.688;37.600;2023-03-22T00:49:27;98934.59;;;7.71;63.26
70200;BME280;57587;55.688;37.600;2023-03-22T00:51:54;98945.16;;;7.64;63.00
70200;BME280;57587;55.688;37.600;2023-03-22T00:54:22;98949.66;;;7.63;62.74
70200;BME280;57587;55.688;37.600;2023-03-22T00:56:49;98948.84;;;7.63;63.42
70200;BME280;57587;55.688;37.600;2023-03-22T00:59:16;98948.06;;;7.54;63.44
70200;BME280;57587;55.688;37.600;2023-03-22T01:01:43;98948.63;;;7.50;63.41
70200;BME280;57587;55.688;37.600;2023-03-22T01:04:10;98952.56;;;7.54;63.39
70200;BME280;57587;55.688;37.600;2023-03-22T01:06:44;98953.59;;;7.53;63.45
70200;BME280;57587;55.688;37.600;2023-03-22T01:09:13;98958.06;;;7.52;63.69
70200;BME280;57587;55.688;37.600;2023-03-22T01:11:42;98961.59;;;7.53;63.69
70200;BME280;57587;55.688;37.600;2023-03-22T01:14:09;98966.53;;;7.56;63.37
70200;BME280;57587;55.688;37.600;2023-03-22T01:16:39;98968.19;;;7.57;63.54
70200;BME280;57587;55.688;37.600;2023-03-22T01:19:07;98967.63;;;7.47;64.26
70200;BME280;57587;55.688;37.600;2023-03-22T01:21:34;98970.28;;;7.47;64.46
70200;BME280;57587;55.688;37.600;2023-03-22T01:24:01;98968.81;;;7.44;64.68
70200;BME280;57587;55.688;37.600;2023-03-22T01:26:29;98983.22;;;7.50;64.69
70200;BME280;57587;55.688;37.600;2023-03-22T01:28:56;98969.25;;;7.48;65.01
70200;BME280;57587;55.688;37.600;2023-03-22T01:31:23;98986.09;;;7.40;64.78
70200;BME280;57587;55.688;37.600;2023-03-22T01:33:50;98983.94;;;7.44;64.83
70200;BME280;57587;55.688;37.600;2023-03-22T01:36:19;98989.28;;;7.44;64.62
70200;BME280;57587;55.688;37.600;2023-03-22T01:38:46;98997.06;;;7.45;64.70
70200;BME280;57587;55.688;37.600;2023-03-22T01:41:15;98990.91;;;7.45;64.77
70200;BME280;57587;55.688;37.600;2023-03-22T01:43:43;99007.53;;;7.47;64.32
70200;BME280;57587;55.688;37.600;2023-03-22T01:46:10;99005.88;;;7.46;65.02
70200;BME280;57587;55.688;37.600;2023-03-22T01:48:40;99006.88;;;7.45;64.30
70200;BME280;57587;55.688;37.600;2023-03-22T01:53:55;99013.94;;;7.37;64.81
70200;BME280;57587;55.688;37.600;2023-03-22T01:56:26;99013.56;;;7.41;64.51
70200;BME280;57587;55.688;37.600;2023-03-22T01:58:55;99016.50;;;7.46;64.62
70200;BME280;57587;55.688;37.600;2023-03-22T02:01:31;99019.19;;;7.46;64.57
70200;BME280;57587;55.688;37.600;2023-03-22T02:04:10;99014.69;;;7.46;64.24
70200;BME280;57587;55.688;37.600;2023-03-22T02:06:41;99018.25;;;7.38;64.12
70200;BME280;57587;55.688;37.600;2023-03-22T02:09:14;99023.56;;;7.38;64.17
70200;BME280;57587;55.688;37.600;2023-03-22T02:12:04;99016.59;;;7.37;64.42
70200;BME280;57587;55.688;37.600;2023-03-22T02:14:57;99016.25;;;7.41;64.36
70200;BME280;57587;55.688;37.600;2023-03-22T02:32:31;99031.00;;;7.43;63.71
70200;BME280;57587;55.688;37.600;2023-03-22T02:40:31;99037.19;;;7.44;63.40
70200;BME280;57587;55.688;37.600;2023-03-22T02:43:14;99038.16;;;7.43;63.64
70200;BME280;57587;55.688;37.600;2023-03-22T02:45:51;99043.31;;;7.44;63.34
70200;BME280;57587;55.688;37.600;2023-03-22T02:51:08;99052.28;;;7.43;62.98
70200;BME280;57587;55.688;37.600;2023-03-22T02:54:00;99061.41;;;7.49;63.05
70200;BME280;57587;55.688;37.600;2023-03-22T02:56:34;99059.41;;;7.51;62.83
70200;BME280;57587;55.688;37.600;2023-03-22T02:59:09;99064.44;;;7.46;63.30
70200;BME280;57587;55.688;37.600;2023-03-22T03:01:58;99064.16;;;7.41;63.71
70200;BME280;57587;55.688;37.600;2023-03-22T03:04:30;99070.34;;;7.33;64.38
70200;BME280;57587;55.688;37.600;2023-03-22T03:07:04;99070.66;;;7.38;64.23
70200;BME280;57587;55.688;37.600;2023-03-22T03:09:32;99066.84;;;7.32;64.28
70200;BME280;57587;55.688;37.600;2023-03-22T03:11:59;99073.53;;;7.28;64.66
70200;BME280;57587;55.688;37.600;2023-03-22T03:14:29;99065.19;;;7.31;64.34
70200;BME280;57587;55.688;37.600;2023-03-22T03:17:12;99077.97;;;7.36;64.33
70200;BME280;57587;55.688;37.600;2023-03-22T03:22:56;99084.47;;;7.33;64.55
70200;BME280;57587;55.688;37.600;2023-03-22T03:28:07;99086.13;;;7.34;64.52
70200;BME280;57587;55.688;37.600;2023-03-22T03:30:52;99090.97;;;7.31;64.29
70200;BME280;57587;55.688;37.600;2023-03-22T03:33:24;99089.50;;;7.28;64.19
70200;BME280;57587;55.688;37.600;2023-03-22T03:36:08;99099.13;;;7.29;63.88
70200;BME280;57587;55.688;37.600;2023-03-22T03:38:42;99094.63;;;7.30;63.95
70200;BME280;57587;55.688;37.600;2023-03-22T03:41:17;99106.44;;;7.27;63.70
70200;BME280;57587;55.688;37.600;2023-03-22T03:43:49;99101.66;;;7.23;63.67
70200;BME280;57587;55.688;37.600;2023-03-22T03:46:17;99104.44;;;7.29;63.45
70200;BME280;57587;55.688;37.600;2023-03-22T03:48:47;99110.44;;;7.31;63.52
70200;BME280;57587;55.688;37.600;2023-03-22T03:51:15;99115.09;;;7.29;63.52
70200;BME280;57587;55.688;37.600;2023-03-22T03:53:42;99114.75;;;7.32;63.04
70200;BME280;57587;55.688;37.600;2023-03-22T03:56:10;99112.09;;;7.32;62.94
70200;BME280;57587;55.688;37.600;2023-03-22T03:58:42;99123.88;;;7.38;63.28
70200;BME280;57587;55.688;37.600;2023-03-22T04:01:10;99125.16;;;7.42;62.37
70200;BME280;57587;55.688;37.600;2023-03-22T04:03:46;99124.34;;;7.42;62.44
70200;BME280;57587;55.688;37.600;2023-03-22T04:06:34;99128.66;;;7.43;62.31
70200;BME280;57587;55.688;37.600;2023-03-22T04:09:08;99123.34;;;7.43;62.14
70200;BME280;57587;55.688;37.600;2023-03-22T04:11:40;99133.50;;;7.39;62.69
70200;BME280;57587;55.688;37.600;2023-03-22T04:14:07;99133.00;;;7.44;62.73
70200;BME280;57587;55.688;37.600;2023-03-22T04:16:34;99129.66;;;7.42;62.82
70200;BME280;57587;55.688;37.600;2023-03-22T04:19:02;99138.66;;;7.41;62.88
70200;BME280;57587;55.688;37.600;2023-03-22T04:21:29;99131.66;;;7.39;62.83
70200;BME280;57587;55.688;37.600;2023-03-22T04:23:59;99139.16;;;7.44;62.89
70200;BME280;57587;55.688;37.600;2023-03-22T04:26:32;99139.78;;;7.46;62.98
70200;BME280;57587;55.688;37.600;2023-03-22T04:29:13;99138.97;;;7.46;62.72
70200;BME280;57587;55.688;37.600;2023-03-22T04:31:45;99155.59;;;7.48;62.70
70200;BME280;57587;55.688;37.600;2023-03-22T04:34:37;99148.63;;;7.47;62.78
70200;BME280;57587;55.688;37.600;2023-03-22T04:37:12;99156.75;;;7.45;62.60
70200;BME280;57587;55.688;37.600;2023-03-22T04:39:47;99154.63;;;7.41;62.42
70200;BME280;57587;55.688;37.600;2023-03-22T04:42:34;99154.63;;;7.41;62.46
70200;BME280;57587;55.688;37.600;2023-03-22T04:45:10;99161.13;;;7.38;61.89
70200;BME280;57587;55.688;37.600;2023-03-22T04:47:39;99163.94;;;7.45;61.99
70200;BME280;57587;55.688;37.600;2023-03-22T04:50:07;99168.38;;;7.52;61.92
70200;BME280;57587;55.688;37.600;2023-03-22T04:52:43;99180.22;;;7.50;61.73
70200;BME280;57587;55.688;37.600;2023-03-22T04:55:10;99191.81;;;7.57;61.46
70200;BME280;57587;55.688;37.600;2023-03-22T04:57:37;99190.81;;;7.58;61.46
70200;BME280;57587;55.688;37.600;2023-03-22T05:00:05;99190.81;;;7.58;61.20
70200;BME280;57587;55.688;37.600;2023-03-22T05:02:35;99183.00;;;7.56;61.44
70200;BME280;57587;55.688;37.600;2023-03-22T05:05:14;99197.50;;;7.54;61.24
70200;BME280;57587;55.688;37.600;2023-03-22T05:07:42;99189.19;;;7.49;61.24
70200;BME280;57587;55.688;37.600;2023-03-22T05:10:10;99183.91;;;7.41;61.75
70200;BME280;57587;55.688;37.600;2023-03-22T05:12:38;99193.56;;;7.42;61.17
70200;BME280;57587;55.688;37.600;2023-03-22T05:15:27;99202.91;;;7.37;61.61
70200;BME280;57587;55.688;37.600;2023-03-22T05:17:54;99211.84;;;7.36;61.60
70200;BME280;57587;55.688;37.600;2023-03-22T05:20:22;99213.34;;;7.39;61.48
70200;BME280;57587;55.688;37.600;2023-03-22T05:23:13;99204.88;;;7.44;61.11
70200;BME280;57587;55.688;37.600;2023-03-22T05:25:46;99211.16;;;7.43;61.27
70200;BME280;57587;55.688;37.600;2023-03-22T05:28:16;99221.00;;;7.42;60.88
70200;BME280;57587;55.688;37.600;2023-03-22T05:31:04;99223.50;;;7.35;60.61
70200;BME280;57587;55.688;37.600;2023-03-22T05:33:41;99224.00;;;7.39;60.43
70200;BME280;57587;55.688;37.600;2023-03-22T05:36:15;99237.78;;;7.43;59.98
70200;BME280;57587;55.688;37.600;2023-03-22T05:39:11;99239.94;;;7.47;60.14
70200;BME280;57587;55.688;37.600;2023-03-22T05:41:42;99240.44;;;7.51;59.77
70200;BME280;57587;55.688;37.600;2023-03-22T05:44:09;99243.41;;;7.56;59.48
70200;BME280;57587;55.688;37.600;2023-03-22T05:46:42;99244.59;;;7.53;59.09
70200;BME280;57587;55.688;37.600;2023-03-22T05:49:21;99244.41;;;7.55;58.49
70200;BME280;57587;55.688;37.600;2023-03-22T05:51:49;99245.06;;;7.57;58.60
70200;BME280;57587;55.688;37.600;2023-03-22T05:54:17;99252.03;;;7.58;58.53
70200;BME280;57587;55.688;37.600;2023-03-22T05:56:48;99257.03;;;7.61;58.03
70200;BME280;57587;55.688;37.600;2023-03-22T05:59:15;99267.03;;;7.59;57.85
70200;BME280;57587;55.688;37.600;2023-03-22T06:01:43;99268.38;;;7.55;57.78
70200;BME280;57587;55.688;37.600;2023-03-22T06:04:22;99267.53;;;7.54;57.99
70200;BME280;57587;55.688;37.600;2023-03-22T06:06:55;99279.84;;;7.55;57.66
70200;BME280;57587;55.688;37.600;2023-03-22T06:09:39;99277.69;;;7.51;57.78
70200;BME280;57587;55.688;37.600;2023-03-22T06:12:10;99283.38;;;7.48;57.22
70200;BME280;57587;55.688;37.600;2023-03-22T06:14:38;99278.38;;;7.45;57.05
70200;BME280;57587;55.688;37.600;2023-03-22T06:17:14;99278.38;;;7.45;57.52
70200;BME280;57587;55.688;37.600;2023-03-22T06:19:42;99280.03;;;7.46;57.42
70200;BME280;57587;55.688;37.600;2023-03-22T06:22:12;99289.19;;;7.51;56.92
70200;BME280;57587;55.688;37.600;2023-03-22T06:24:39;99288.34;;;7.59;56.75
70200;BME280;57587;55.688;37.600;2023-03-22T06:27:13;99287.47;;;7.67;56.44
70200;BME280;57587;55.688;37.600;2023-03-22T06:29:40;99293.63;;;7.67;56.10
70200;BME280;57587;55.688;37.600;2023-03-22T06:32:07;99300.44;;;7.70;56.27
70200;BME280;57587;55.688;37.600;2023-03-22T06:34:35;99295.25;;;7.76;55.51
70200;BME280;57587;55.688;37.600;2023-03-22T06:37:02;99293.06;;;7.80;55.30
70200;BME280;57587;55.688;37.600;2023-03-22T06:39:32;99291.88;;;7.91;54.55
70200;BME280;57587;55.688;37.600;2023-03-22T06:42:00;99295.75;;;8.11;53.56
70200;BME280;57587;55.688;37.600;2023-03-22T06:44:27;99296.56;;;8.74;52.95
70200;BME280;57587;55.688;37.600;2023-03-22T06:47:15;99285.84;;;10.15;48.86
70200;BME280;57587;55.688;37.600;2023-03-22T06:49:53;99297.44;;;11.30;45.40
70200;BME280;57587;55.688;37.600;2023-03-22T06:52:24;99294.25;;;11.83;44.33
70200;BME280;57587;55.688;37.600;2023-03-22T06:54:51;99303.66;;;11.93;42.97
70200;BME280;57587;55.688;37.600;2023-03-22T06:57:19;99293.59;;;12.02;42.37
70200;BME280;57587;55.688;37.600;2023-03-22T06:59:46;99296.44;;;12.82;41.02
70200;BME280;57587;55.688;37.600;2023-03-22T07:02:13;99314.31;;;14.91;37.42
70200;BME280;57587;55.688;37.600;2023-03-22T07:04:52;99304.53;;;15.21;36.05
70200;BME280;57587;55.688;37.600;2023-03-22T07:07:20;99301.50;;;16.17;34.52
70200;BME280;57587;55.688;37.600;2023-03-22T07:09:47;99304.28;;;18.47;30.73
70200;BME280;57587;55.688;37.600;2023-03-22T07:12:15;99290.63;;;20.54;28.02
70200;BME280;57587;55.688;37.600;2023-03-22T07:14:45;99297.13;;;21.87;25.52
70200;BME280;57587;55.688;37.600;2023-03-22T07:17:23;99289.31;;;23.05;23.41
70200;BME280;57587;55.688;37.600;2023-03-22T07:19:50;99292.97;;;24.06;22.49
70200;BME280;57587;55.688;37.600;2023-03-22T07:22:22;99293.94;;;24.85;21.55
70200;BME280;57587;55.688;37.600;2023-03-22T07:24:52;99289.59;;;25.47;20.27
70200;BME280;57587;55.688;37.600;2023-03-22T07:27:26;99298.16;;;25.94;19.71
70200;BME280;57587;55.688;37.600;2023-03-22T07:29:54;99305.34;;;26.57;19.03
70200;BME280;57587;55.688;37.600;2023-03-22T07:32:21;99306.38;;;27.50;18.46
70200;BME280;57587;55.688;37.600;2023-03-22T07:35:09;99316.50;;;28.38;17.52
70200;BME280;57587;55.688;37.600;2023-03-22T07:37:38;99316.47;;;29.02;17.05
70200;BME280;57587;55.688;37.600;2023-03-22T07:40:14;99312.97;;;29.95;15.97
70200;BME280;57587;55.688;37.600;2023-03-22T07:42:42;99318.53;;;30.52;15.41
70200;BME280;57587;55.688;37.600;2023-03-22T07:45:21;99327.75;;;30.39;15.59
70200;BME280;57587;55.688;37.600;2023-03-22T07:48:12;99328.16;;;30.15;15.42
70200;BME280;57587;55.688;37.600;2023-03-22T07:51:05;99326.41;;;27.97;16.75
70200;BME280;57587;55.688;37.600;2023-03-22T07:53:33;99327.69;;;26.02;18.25
70200;BME280;57587;55.688;37.600;2023-03-22T07:56:00;99322.41;;;24.24;19.97
70200;BME280;57587;55.688;37.600;2023-03-22T07:58:30;99329.91;;;22.81;21.16
70200;BME280;57587;55.688;37.600;2023-03-22T08:01:03;99322.41;;;21.77;22.89
70200;BME280;57587;55.688;37.600;2023-03-22T08:03:52;99328.56;;;20.49;24.67
70200;BME280;57587;55.688;37.600;2023-03-22T08:06:40;99327.38;;;19.96;25.53
70200;BME280;57587;55.688;37.600;2023-03-22T08:09:09;99326.94;;;19.31;26.01
70200;BME280;57587;55.688;37.600;2023-03-22T08:11:37;99320.56;;;18.75;27.07
70200;BME280;57587;55.688;37.600;2023-03-22T08:14:04;99327.59;;;18.07;27.97
70200;BME280;57587;55.688;37.600;2023-03-22T08:16:35;99328.09;;;17.57;28.72
70200;BME280;57587;55.688;37.600;2023-03-22T08:19:04;99330.06;;;17.26;29.58
70200;BME280;57587;55.688;37.600;2023-03-22T08:21:35;99329.31;;;16.96;30.13
70200;BME280;57587;55.688;37.600;2023-03-22T08:24:06;99330.00;;;16.61;30.46
70200;BME280;57587;55.688;37.600;2023-03-22T08:26:55;99326.84;;;16.16;30.98
70200;BME280;57587;55.688;37.600;2023-03-22T08:29:37;99330.50;;;15.84;31.88
70200;BME280;57587;55.688;37.600;2023-03-22T08:32:06;99336.41;;;15.75;31.99
70200;BME280;57587;55.688;37.600;2023-03-22T08:34:38;99330.94;;;15.38;32.07
70200;BME280;57587;55.688;37.600;2023-03-22T08:37:06;99343.59;;;15.12;32.94
70200;BME280;57587;55.688;37.600;2023-03-22T08:39:35;99350.16;;;14.91;33.77
70200;BME280;57587;55.688;37.600;2023-03-22T08:42:17;99342.69;;;14.93;33.38
70200;BME280;57587;55.688;37.600;2023-03-22T08:44:45;99340.06;;;14.80;33.66
70200;BME280;57587;55.688;37.600;2023-03-22T08:47:13;99337.25;;;14.68;34.25
70200;BME280;57587;55.688;37.600;2023-03-22T08:49:41;99333.13;;;14.66;33.96
70200;BME280;57587;55.688;37.600;2023-03-22T08:52:25;99340.22;;;14.47;34.06
70200;BME280;57587;55.688;37.600;2023-03-22T08:55:00;99347.59;;;14.20;34.63
70200;BME280;57587;55.688;37.600;2023-03-22T08:57:46;99340.63;;;13.92;34.90
70200;BME280;57587;55.688;37.600;2023-03-22T09:00:27;99344.63;;;13.63;35.62
70200;BME280;57587;55.688;37.600;2023-03-22T09:03:40;99346.06;;;13.59;35.82
70200;BME280;57587;55.688;37.600;2023-03-22T09:06:09;99344.88;;;13.42;35.87
70200;BME280;57587;55.688;37.600;2023-03-22T09:08:39;99344.25;;;13.26;36.26
70200;BME280;57587;55.688;37.600;2023-03-22T09:11:12;99337.19;;;13.05;36.11
70200;BME280;57587;55.688;37.600;2023-03-22T09:13:41;99340.25;;;12.89;36.44
70200;BME280;57587;55.688;37.600;2023-03-22T09:16:08;99338.00;;;12.86;37.07
70200;BME280;57587;55.688;37.600;2023-03-22T09:18:36;99345.41;;;12.77;36.94
70200;BME280;57587;55.688;37.600;2023-03-22T09:21:10;99344.56;;;12.70;37.00
70200;BME280;57587;55.688;37.600;2023-03-22T09:24:07;99344.59;;;13.10;36.51
70200;BME280;57587;55.688;37.600;2023-03-22T09:26:48;99346.88;;;15.64;33.23
70200;BME280;57587;55.688;37.600;2023-03-22T09:29:17;99346.09;;;17.75;29.92
70200;BME280;57587;55.688;37.600;2023-03-22T09:31:46;99345.19;;;18.33;28.76
70200;BME280;57587;55.688;37.600;2023-03-22T09:34:18;99355.47;;;18.88;27.79
70200;BME280;57587;55.688;37.600;2023-03-22T09:36:46;99350.69;;;19.24;27.28
70200;BME280;57587;55.688;37.600;2023-03-22T09:39:17;99348.47;;;19.55;26.58
70200;BME280;57587;55.688;37.600;2023-03-22T09:41:52;99345.53;;;19.40;26.66
70200;BME280;57587;55.688;37.600;2023-03-22T09:44:36;99352.75;;;18.60;27.51
70200;BME280;57587;55.688;37.600;2023-03-22T09:47:16;99358.91;;;17.68;28.69
70200;BME280;57587;55.688;37.600;2023-03-22T09:49:47;99368.41;;;17.59;28.60
70200;BME280;57587;55.688;37.600;2023-03-22T09:52:19;99359.63;;;16.98;29.38
70200;BME280;57587;55.688;37.600;2023-03-22T09:54:47;99359.72;;;16.43;30.42
70200;BME280;57587;55.688;37.600;2023-03-22T09:57:31;99361.91;;;15.97;30.78
70200;BME280;57587;55.688;37.600;2023-03-22T10:05:30;99357.59;;;14.58;33.20
70200;BME280;57587;55.688;37.600;2023-03-22T10:10:30;99362.56;;;13.96;34.21
70200;BME280;57587;55.688;37.600;2023-03-22T10:13:19;99363.84;;;13.73;35.12
70200;BME280;57587;55.688;37.600;2023-03-22T10:15:54;99361.81;;;13.49;35.47
70200;BME280;57587;55.688;37.600;2023-03-22T10:18:37;99359.06;;;13.15;36.01
70200;BME280;57587;55.688;37.600;2023-03-22T10:21:12;99358.44;;;12.93;36.42
70200;BME280;57587;55.688;37.600;2023-03-22T10:24:17;99354.09;;;12.79;36.93
70200;BME280;57587;55.688;37.600;2023-03-22T10:26:47;99360.06;;;12.81;37.07
70200;BME280;57587;55.688;37.600;2023-03-22T10:29:37;99358.19;;;12.75;37.57
70200;BME280;57587;55.688;37.600;2023-03-22T10:32:13;99355.72;;;12.74;37.65
70200;BME280;57587;55.688;37.600;2023-03-22T10:34:41;99352.81;;;12.75;37.83
70200;BME280;57587;55.688;37.600;2023-03-22T10:37:15;99358.41;;;12.74;37.26
70200;BME280;57587;55.688;37.600;2023-03-22T10:39:45;99355.91;;;12.72;37.71
70200;BME280;57587;55.688;37.600;2023-03-22T10:42:19;99358.34;;;12.60;37.53
70200;BME280;57587;55.688;37.600;2023-03-22T10:44:50;99349.31;;;12.68;37.67
70200;BME280;57587;55.688;37.600;2023-03-22T10:47:31;99356.97;;;12.84;38.01
70200;BME280;57587;55.688;37.600;2023-03-22T10:50:02;99354.28;;;12.84;37.67
70200;BME280;57587;55.688;37.600;2023-03-22T10:52:41;99351.81;;;12.83;37.30
70200;BME280;57587;55.688;37.600;2023-03-22T10:55:12;99352.47;;;12.91;37.44
70200;BME280;57587;55.688;37.600;2023-03-22T10:57:40;99344.59;;;12.90;37.22
70200;BME280;57587;55.688;37.600;2023-03-22T11:00:09;99346.47;;;12.89;37.32
70200;BME280;57587;55.688;37.600;2023-03-22T11:02:51;99346.03;;;12.79;37.01
70200;BME280;57587;55.688;37.600;2023-03-22T11:05:25;99344.13;;;12.60;37.04
70200;BME280;57587;55.688;37.600;2023-03-22T11:07:53;99350.69;;;12.51;37.40
70200;BME280;57587;55.688;37.600;2023-03-22T11:10:22;99350.25;;;12.40;37.68
70200;BME280;57587;55.688;37.600;2023-03-22T11:12:52;99353.44;;;12.16;37.68
70200;BME280;57587;55.688;37.600;2023-03-22T11:15:28;99344.72;;;12.00;38.13
70200;BME280;57587;55.688;37.600;2023-03-22T11:18:15;99361.78;;;11.86;38.47
70200;BME280;57587;55.688;37.600;2023-03-22T11:20:55;99360.25;;;11.77;39.08
70200;BME280;57587;55.688;37.600;2023-03-22T11:23:24;99356.88;;;11.68;39.74
70200;BME280;57587;55.688;37.600;2023-03-22T11:25:54;99358.00;;;11.52;40.65
70200;BME280;57587;55.688;37.600;2023-03-22T11:28:34;99353.19;;;11.41;41.32
70200;BME280;57587;55.688;37.600;2023-03-22T11:33:50;99359.31;;;11.35;41.59
70200;BME280;57587;55.688;37.600;2023-03-22T11:36:20;99358.38;;;11.21;42.14
70200;BME280;57587;55.688;37.600;2023-03-22T11:38:55;99351.94;;;11.16;42.63
70200;BME280;57587;55.688;37.600;2023-03-22T11:41:28;99354.09;;;11.05;42.91
70200;BME280;57587;55.688;37.600;2023-03-22T11:44:10;99358.34;;;10.93;42.82
70200;BME280;57587;55.688;37.600;2023-03-22T11:46:38;99353.38;;;10.90;43.50
70200;BME280;57587;55.688;37.600;2023-03-22T11:49:08;99359.31;;;10.71;44.07
70200;BME280;57587;55.688;37.600;2023-03-22T11:51:41;99359.69;;;10.68;44.30
70200;BME280;57587;55.688;37.600;2023-03-22T11:54:12;99350.03;;;10.67;44.38
70200;BME280;57587;55.688;37.600;2023-03-22T11:56:45;99352.38;;;10.76;45.43
70200;BME280;57587;55.688;37.600;2023-03-22T11:59:35;99359.88;;;10.81;44.52
70200;BME280;57587;55.688;37.600;2023-03-22T12:02:31;99363.34;;;10.60;45.27
70200;BME280;57587;55.688;37.600;2023-03-22T12:07:35;99351.53;;;10.54;45.72
70200;BME280;57587;55.688;37.600;2023-03-22T12:10:20;99353.72;;;10.66;45.67
70200;BME280;57587;55.688;37.600;2023-03-22T12:12:53;99351.19;;;10.79;44.79
70200;BME280;57587;55.688;37.600;2023-03-22T12:15:33;99355.19;;;10.90;44.60
70200;BME280;57587;55.688;37.600;2023-03-22T12:18:05;99344.81;;;11.01;44.17
70200;BME280;57587;55.688;37.600;2023-03-22T12:23:11;99354.31;;;11.04;43.73
70200;BME280;57587;55.688;37.600;2023-03-22T12:28:55;99348.84;;;10.91;43.44
70200;BME280;57587;55.688;37.600;2023-03-22T12:34:40;99342.50;;;10.98;43.93
70200;BME280;57587;55.688;37.600;2023-03-22T12:37:14;99339.44;;;11.01;43.28
70200;BME280;57587;55.688;37.600;2023-03-22T12:40:03;99347.25;;;10.96;43.04
70200;BME280;57587;55.688;37.600;2023-03-22T12:45:28;99342.38;;;10.64;44.44
70200;BME280;57587;55.688;37.600;2023-03-22T12:48:05;99332.81;;;10.54;44.77
70200;BME280;57587;55.688;37.600;2023-03-22T12:50:45;99338.94;;;10.48;44.75
70200;BME280;57587;55.688;37.600;2023-03-22T12:53:16;99335.72;;;10.38;45.16
70200;BME280;57587;55.688;37.600;2023-03-22T12:55:45;99337.59;;;10.08;45.72
70200;BME280;57587;55.688;37.600;2023-03-22T12:58:19;99339.06;;;9.96;46.80
70200;BME280;57587;55.688;37.600;2023-03-22T13:00:56;99330.47;;;10.00;46.89
70200;BME280;57587;55.688;37.600;2023-03-22T13:03:28;99333.44;;;10.05;47.17
70200;BME280;57587;55.688;37.600;2023-03-22T13:35:50;99328.91;;;10.21;45.49
70200;BME280;57587;55.688;37.600;2023-03-22T13:38:32;99317.50;;;10.27;46.01
70200;BME280;57587;55.688;37.600;2023-03-22T13:43:51;99306.94;;;10.40;45.20
70200;BME280;57587;55.688;37.600;2023-03-22T13:51:21;99313.06;;;10.55;44.33
70200;BME280;57587;55.688;37.600;2023-03-22T13:59:19;99314.81;;;10.27;42.86
70200;BME280;57587;55.688;37.600;2023-03-22T14:04:43;99305.97;;;10.11;43.31
70200;BME280;57587;55.688;37.600;2023-03-22T14:07:36;99296.69;;;9.92;43.23
70200;BME280;57587;55.688;37.600;2023-03-22T14:10:13;99296.88;;;9.91;43.84
70200;BME280;57587;55.688;37.600;2023-03-22T14:15:18;99286.06;;;9.99;43.11
70200;BME280;57587;55.688;37.600;2023-03-22T14:18:12;99296.50;;;9.94;42.18
70200;BME280;57587;55.688;37.600;2023-03-22T14:20:41;99294.97;;;9.85;43.10
70200;BME280;57587;55.688;37.600;2023-03-22T14:23:16;99299.66;;;9.83;42.91
70200;BME280;57587;55.688;37.600;2023-03-22T14:25:44;99306.94;;;9.89;43.75
70200;BME280;57587;55.688;37.600;2023-03-22T14:28:20;99303.16;;;9.83;42.97
70200;BME280;57587;55.688;37.600;2023-03-22T14:30:55;99294.38;;;9.75;42.85
70200;BME280;57587;55.688;37.600;2023-03-22T14:33:22;99293.56;;;9.74;43.46
70200;BME280;57587;55.688;37.600;2023-03-22T14:36:28;99296.59;;;9.56;43.43
70200;BME280;57587;55.688;37.600;2023-03-22T14:39:06;99288.22;;;9.59;43.61
70200;BME280;57587;55.688;37.600;2023-03-22T14:41:36;99284.72;;;9.59;43.57
70200;BME280;57587;55.688;37.600;2023-03-22T14:44:04;99289.06;;;9.45;43.68
70200;BME280;57587;55.688;37.600;2023-03-22T14:46:35;99279.56;;;9.42;43.06
70200;BME280;57587;55.688;37.600;2023-03-22T14:49:03;99290.72;;;9.46;43.75
70200;BME280;57587;55.688;37.600;2023-03-22T14:51:36;99285.09;;;9.41;42.86
70200;BME280;57587;55.688;37.600;2023-03-22T14:54:06;99282.03;;;9.44;43.49
70200;BME280;57587;55.688;37.600;2023-03-22T14:56:37;99286.84;;;9.34;43.67
70200;BME280;57587;55.688;37.600;2023-03-22T14:59:06;99290.25;;;9.28;42.63
70200;BME280;57587;55.688;37.600;2023-03-22T15:01:37;99287.47;;;9.21;43.49
70200;BME280;57587;55.688;37.600;2023-03-22T15:04:09;99292.50;;;9.16;42.85
70200;BME280;57587;55.688;37.600;2023-03-22T15:06:46;99289.44;;;9.04;43.46
70200;BME280;57587;55.688;37.600;2023-03-22T15:09:15;99294.69;;;8.97;43.63
70200;BME280;57587;55.688;37.600;2023-03-22T15:11:44;99284.91;;;8.90;44.07